Time;durP1;ratioP1;P1;durP2;ratioP2;P2;SDS_P1;SDS_P2;PMS_P1;PMS_P2;Temp;Humidity;BMP_temperature;BMP_pressure;BME280_temperature;BME280_humidity;BME280_pressure;Samples;Min_cycle;Max_cycle;Signal;HPM_P1;HPM_P2
2024/01/02 00:01:53;;;;;;;15.60;4.00;;;4.30;99.90;;;;;;5080208;28;20326;-65
2024/01/02 00:04:21;;;;;;;11.95;4.18;;;4.30;99.90;;;;;;5081330;28;20284;-65
2024/01/02 00:06:48;;;;;;;8.25;4.35;;;4.30;99.90;;;;;;5080853;28;20304;-65
2024/01/02 00:09:16;;;;;;;13.77;4.75;;;4.30;99.90;;;;;;5084288;28;20197;-66
2024/01/02 00:11:42;;;;;;;16.98;4.00;;;4.30;99.90;;;;;;5076572;28;20236;-65
2024/01/02 00:14:09;;;;;;;12.05;3.78;;;4.30;99.90;;;;;;5076123;28;20203;-64
2024/01/02 00:16:36;;;;;;;9.70;3.33;;;4.30;99.90;;;;;;5074623;28;20209;-64
2024/01/02 00:19:03;;;;;;;13.50;4.28;;;4.30;99.90;;;;;;5075621;28;20217;-65
2024/01/02 00:21:31;;;;;;;16.70;4.47;;;4.30;99.90;;;;;;5075650;28;20232;-65
2024/01/02 00:23:59;;;;;;;12.43;3.78;;;4.30;99.90;;;;;;5076374;28;20666;-64
2024/01/02 00:26:25;;;;;;;13.07;3.58;;;4.30;99.90;;;;;;5082080;28;20196;-65
2024/01/02 00:28:52;;;;;;;11.25;3.75;;;4.30;99.90;;;;;;5084203;28;20197;-64
2024/01/02 00:31:19;;;;;;;11.57;3.88;;;4.30;99.90;;;;;;5079255;28;20282;-64
2024/01/02 00:33:46;;;;;;;10.15;4.35;;;4.30;99.90;;;;;;5079274;28;20200;-64
2024/01/02 00:36:13;;;;;;;9.27;3.78;;;4.40;99.90;;;;;;5079413;28;20201;-64
2024/01/02 00:38:41;;;;;;;11.70;3.95;;;4.40;99.90;;;;;;5079583;28;20721;-65
2024/01/02 00:41:08;;;;;;;12.23;3.38;;;4.40;99.90;;;;;;5078204;28;20697;-65
2024/01/02 00:43:35;;;;;;;12.63;3.83;;;4.40;99.90;;;;;;5080086;28;20201;-65
2024/01/02 00:46:02;;;;;;;11.32;3.28;;;4.50;99.90;;;;;;5080108;28;20205;-64
2024/01/02 00:48:29;;;;;;;7.97;2.75;;;4.50;99.90;;;;;;5079389;28;20203;-65
2024/01/02 00:50:56;;;;;;;12.73;3.50;;;4.50;99.90;;;;;;5079008;28;20205;-64
2024/01/02 00:53:23;;;;;;;7.78;3.10;;;4.50;99.90;;;;;;5080192;28;20196;-64
2024/01/02 00:55:51;;;;;;;6.65;3.25;;;4.60;99.90;;;;;;5079737;28;20207;-65
2024/01/02 00:58:17;;;;;;;8.40;3.58;;;4.60;99.90;;;;;;5078242;28;20239;-64
2024/01/02 01:00:44;;;;;;;10.60;3.28;;;4.60;99.90;;;;;;5079895;28;20196;-65
2024/01/02 01:03:11;;;;;;;10.95;2.92;;;4.70;99.90;;;;;;5079459;28;20231;-65
2024/01/02 01:05:38;;;;;;;6.68;2.88;;;4.70;99.90;;;;;;5080792;28;20204;-65
2024/01/02 01:08:05;;;;;;;8.88;3.50;;;4.70;99.90;;;;;;5080470;28;20209;-65
2024/01/02 01:10:32;;;;;;;11.98;4.10;;;4.70;99.90;;;;;;5079549;28;20200;-65
2024/01/02 01:13:00;;;;;;;8.35;3.20;;;4.80;99.90;;;;;;5080345;28;20227;-64
2024/01/02 01:15:27;;;;;;;5.72;2.85;;;4.80;99.90;;;;;;5081052;28;20205;-64
2024/01/02 01:17:54;;;;;;;5.85;2.78;;;4.80;99.90;;;;;;5079550;28;20212;-65
2024/01/02 01:20:21;;;;;;;9.02;3.15;;;4.80;99.90;;;;;;5080483;28;20247;-65
2024/01/02 01:22:47;;;;;;;7.25;2.70;;;4.80;99.90;;;;;;5080112;28;20247;-65
2024/01/02 01:25:14;;;;;;;7.70;2.58;;;4.90;99.90;;;;;;5080071;28;20209;-64
2024/01/02 01:27:41;;;;;;;6.25;2.70;;;4.90;99.90;;;;;;5080767;28;20197;-64
2024/01/02 01:30:11;;;;;;;8.20;2.50;;;4.90;99.90;;;;;;5078457;28;20212;-65
2024/01/02 01:32:37;;;;;;;14.93;3.08;;;5.00;99.90;;;;;;5080792;28;20228;-65
2024/01/02 01:35:05;;;;;;;7.28;2.75;;;5.00;99.90;;;;;;5078462;28;20207;-64
2024/01/02 01:37:31;;;;;;;7.38;2.58;;;5.10;99.90;;;;;;5081583;28;20212;-66
2024/01/02 01:39:58;;;;;;;9.18;2.80;;;5.10;99.90;;;;;;5078913;28;20205;-64
2024/01/02 01:42:25;;;;;;;9.85;2.38;;;5.20;99.90;;;;;;5078227;28;20620;-64
2024/01/02 01:44:52;;;;;;;7.95;2.45;;;5.20;99.90;;;;;;5079354;28;20213;-65
2024/01/02 01:47:20;;;;;;;10.73;2.75;;;5.30;99.90;;;;;;5079009;28;20205;-64
2024/01/02 01:49:47;;;;;;;5.05;2.05;;;5.30;99.90;;;;;;5080236;28;20201;-64
2024/01/02 01:52:15;;;;;;;13.80;2.63;;;5.30;99.90;;;;;;5081584;28;20255;-65
2024/01/02 01:54:42;;;;;;;4.43;1.95;;;5.30;99.90;;;;;;5080822;28;20299;-65
2024/01/02 01:57:09;;;;;;;5.20;2.90;;;5.30;99.90;;;;;;5077544;28;20577;-64
2024/01/02 01:59:36;;;;;;;6.07;2.80;;;5.30;99.90;;;;;;5076415;28;20197;-65
2024/01/02 02:02:04;;;;;;;14.48;2.72;;;5.40;99.90;;;;;;5075678;28;20311;-64
2024/01/02 02:04:36;;;;;;;12.60;2.75;;;5.40;99.90;;;;;;5075549;28;20574;-64
2024/01/02 02:07:04;;;;;;;6.70;2.90;;;5.40;99.90;;;;;;5075439;28;20196;-65
2024/01/02 02:09:31;;;;;;;6.40;2.70;;;5.50;99.90;;;;;;5075374;28;20197;-65
2024/01/02 02:11:58;;;;;;;5.45;2.22;;;5.40;99.90;;;;;;5074897;28;20348;-66
2024/01/02 02:14:26;;;;;;;7.93;2.65;;;5.50;99.90;;;;;;5079525;28;20770;-64
2024/01/02 02:16:52;;;;;;;9.48;2.55;;;5.50;99.90;;;;;;5075139;28;20580;-65
2024/01/02 02:19:19;;;;;;;11.40;3.30;;;5.50;99.90;;;;;;5075487;28;20591;-65
2024/01/02 02:21:48;;;;;;;11.07;3.00;;;5.60;99.90;;;;;;5074837;28;20737;-65
2024/01/02 02:24:17;;;;;;;7.97;2.38;;;5.60;99.90;;;;;;5075579;28;20254;-65
2024/01/02 02:26:43;;;;;;;12.30;2.92;;;5.60;99.90;;;;;;5075408;28;20197;-65
2024/01/02 02:29:10;;;;;;;13.23;2.90;;;5.60;99.90;;;;;;5075087;28;20197;-65
2024/01/02 02:31:37;;;;;;;16.48;2.25;;;5.70;99.90;;;;;;5075291;28;20221;-65
2024/01/02 02:34:04;;;;;;;9.45;2.83;;;5.70;99.90;;;;;;5075290;28;20207;-65
2024/01/02 02:36:30;;;;;;;8.63;3.40;;;5.70;99.90;;;;;;5075713;28;20286;-65
2024/01/02 02:38:57;;;;;;;5.68;2.70;;;5.70;99.90;;;;;;5075182;28;20228;-65
2024/01/02 02:41:25;;;;;;;10.88;3.55;;;5.80;99.90;;;;;;5075177;28;20227;-65
2024/01/02 02:43:52;;;;;;;8.73;2.40;;;5.90;99.90;;;;;;5075221;28;20202;-66
2024/01/02 02:46:19;;;;;;;6.13;2.42;;;5.90;99.90;;;;;;5074894;28;20211;-65
2024/01/02 02:48:45;;;;;;;7.75;2.60;;;5.90;99.90;;;;;;5075683;28;20201;-64
2024/01/02 02:51:12;;;;;;;13.85;4.28;;;5.90;99.90;;;;;;5073844;28;20540;-65
2024/01/02 02:53:39;;;;;;;7.75;2.40;;;6.00;99.90;;;;;;5074447;28;20684;-65
2024/01/02 02:56:06;;;;;;;9.38;3.08;;;6.00;99.90;;;;;;5074897;28;20208;-64
2024/01/02 02:58:34;;;;;;;5.95;2.42;;;6.00;99.90;;;;;;5075517;28;20224;-63
2024/01/02 03:01:01;;;;;;;8.43;2.30;;;6.10;99.90;;;;;;5075375;28;20205;-64
2024/01/02 03:03:27;;;;;;;4.22;2.00;;;6.10;99.90;;;;;;5075007;28;20208;-64
2024/01/02 03:05:54;;;;;;;10.15;2.38;;;6.10;99.90;;;;;;5074677;28;20205;-64
2024/01/02 03:08:21;;;;;;;7.75;2.53;;;6.20;99.90;;;;;;5075128;28;20201;-65
2024/01/02 03:10:49;;;;;;;6.15;2.53;;;6.20;99.90;;;;;;5074754;28;20219;-65
2024/01/02 03:13:16;;;;;;;4.72;2.80;;;6.20;99.90;;;;;;5074662;28;20220;-64
2024/01/02 03:15:44;;;;;;;16.85;2.90;;;6.20;99.90;;;;;;5074482;28;20204;-65
2024/01/02 03:18:10;;;;;;;4.50;2.38;;;6.20;99.90;;;;;;5073874;28;20717;-65
2024/01/02 03:20:37;;;;;;;9.07;3.28;;;6.30;99.90;;;;;;5074701;28;20205;-64
2024/01/02 03:23:04;;;;;;;9.60;2.40;;;6.30;99.90;;;;;;5074009;28;20221;-65
2024/01/02 03:25:31;;;;;;;7.22;2.10;;;6.30;99.90;;;;;;5074662;28;20219;-64
2024/01/02 03:27:57;;;;;;;4.05;2.03;;;6.30;99.90;;;;;;5074082;28;20197;-64
2024/01/02 03:30:24;;;;;;;9.63;2.58;;;6.30;99.90;;;;;;5074059;28;20212;-65
2024/01/02 03:32:52;;;;;;;5.50;2.03;;;6.30;99.90;;;;;;5074451;28;20224;-64
2024/01/02 03:35:19;;;;;;;8.70;1.92;;;6.40;99.90;;;;;;5076299;28;20204;-64
2024/01/02 03:37:46;;;;;;;6.93;1.77;;;6.40;99.90;;;;;;5075651;28;20574;-64
2024/01/02 03:40:14;;;;;;;3.65;1.98;;;6.40;99.90;;;;;;5079178;28;20681;-65
2024/01/02 03:42:41;;;;;;;9.13;2.35;;;6.40;99.90;;;;;;5075696;28;20725;-64
2024/01/02 03:45:09;;;;;;;4.75;1.80;;;6.50;99.90;;;;;;5076042;28;20582;-63
2024/01/02 03:47:36;;;;;;;6.13;2.65;;;6.50;99.90;;;;;;5076024;28;20205;-64
2024/01/02 03:50:05;;;;;;;5.97;2.53;;;6.50;99.90;;;;;;5076660;28;20212;-63
2024/01/02 03:52:32;;;;;;;12.52;3.45;;;6.50;99.90;;;;;;5077101;28;20233;-64
2024/01/02 03:54:59;;;;;;;6.85;2.95;;;6.60;99.90;;;;;;5075541;28;20212;-64
2024/01/02 03:57:26;;;;;;;7.07;2.20;;;6.60;99.90;;;;;;5076160;28;20207;-65
2024/01/02 03:59:53;;;;;;;3.92;2.47;;;6.60;99.90;;;;;;5074429;28;20299;-65
2024/01/02 04:02:20;;;;;;;4.35;2.65;;;6.60;99.90;;;;;;5075348;28;20227;-65
2024/01/02 04:04:47;;;;;;;5.22;1.92;;;6.60;99.90;;;;;;5075387;28;20208;-64
2024/01/02 04:07:15;;;;;;;3.88;2.35;;;6.70;99.90;;;;;;5074781;28;20197;-65
2024/01/02 04:12:53;;;;;;;6.10;3.95;;;6.70;99.90;;;;;;5136321;27;20549;-66
2024/01/02 04:15:20;;;;;;;7.55;2.35;;;6.70;99.90;;;;;;5137925;28;20206;-65
2024/01/02 04:17:46;;;;;;;11.30;2.25;;;6.70;99.90;;;;;;5139888;28;20198;-66
2024/01/02 04:20:13;;;;;;;4.78;2.10;;;6.70;99.90;;;;;;5140054;28;20208;-65
2024/01/02 04:22:40;;;;;;;10.00;2.40;;;6.70;99.90;;;;;;5145164;27;20247;-64
2024/01/02 04:25:08;;;;;;;4.90;2.33;;;6.70;99.90;;;;;;5150489;28;20195;-65
2024/01/02 04:27:35;;;;;;;3.47;1.92;;;6.60;99.90;;;;;;5112409;23;20580;-65
2024/01/02 04:30:03;;;;;;;3.45;2.00;;;6.60;99.90;;;;;;5090819;28;20200;-66
2024/01/02 04:32:30;;;;;;;4.78;2.25;;;6.60;99.90;;;;;;5090868;28;20242;-67
2024/01/02 04:34:57;;;;;;;7.95;3.95;;;6.60;99.90;;;;;;5090539;28;20662;-65
2024/01/02 04:37:23;;;;;;;5.70;2.75;;;6.60;99.90;;;;;;5090190;28;20224;-67
2024/01/02 04:39:50;;;;;;;7.45;2.80;;;6.60;99.90;;;;;;5090536;28;20204;-66
2024/01/02 04:42:17;;;;;;;6.43;2.65;;;6.60;99.90;;;;;;5090277;28;20579;-65
2024/01/02 04:44:44;;;;;;;3.97;2.45;;;6.60;99.90;;;;;;5090652;28;20203;-65
2024/01/02 04:47:12;;;;;;;8.35;2.85;;;6.50;99.90;;;;;;5090256;28;20258;-66
2024/01/02 04:49:39;;;;;;;8.50;3.83;;;6.50;99.90;;;;;;5090075;28;20204;-65
2024/01/02 04:52:06;;;;;;;6.57;2.95;;;6.50;99.90;;;;;;5089771;28;20604;-65
2024/01/02 04:54:33;;;;;;;5.20;2.95;;;6.50;99.90;;;;;;5089753;28;20223;-66
2024/01/02 04:56:59;;;;;;;8.35;3.60;;;6.50;99.90;;;;;;5090191;28;20296;-65
2024/01/02 04:59:26;;;;;;;6.55;3.45;;;6.50;99.90;;;;;;5089679;28;20200;-65
2024/01/02 05:01:53;;;;;;;5.32;3.28;;;6.40;99.90;;;;;;5101554;23;20247;-62
2024/01/02 05:04:21;;;;;;;7.55;3.38;;;6.50;99.90;;;;;;5089285;28;20201;-61
2024/01/02 05:06:48;;;;;;;6.13;3.22;;;6.40;99.90;;;;;;5089707;28;20204;-62
2024/01/02 05:09:14;;;;;;;7.32;2.58;;;6.40;99.90;;;;;;5089125;28;20211;-60
2024/01/02 05:11:41;;;;;;;8.60;2.70;;;6.40;99.90;;;;;;5089542;28;20311;-60
2024/01/02 05:14:08;;;;;;;9.23;3.38;;;6.40;99.90;;;;;;5089767;28;20212;-60
2024/01/02 05:16:35;;;;;;;3.58;2.38;;;6.40;99.90;;;;;;5089738;28;20231;-61
2024/01/02 05:19:01;;;;;;;7.32;3.40;;;6.40;99.90;;;;;;5088936;28;20638;-62
2024/01/02 05:21:29;;;;;;;7.40;3.30;;;6.40;99.90;;;;;;5088831;28;20224;-61
2024/01/02 05:23:56;;;;;;;7.13;3.60;;;6.40;99.90;;;;;;5076978;28;20219;-61
2024/01/02 05:26:23;;;;;;;7.07;2.97;;;6.40;99.90;;;;;;5076509;28;20248;-61
2024/01/02 05:28:50;;;;;;;7.53;2.20;;;6.40;99.90;;;;;;5076548;28;20204;-63
2024/01/02 05:31:16;;;;;;;7.28;2.40;;;6.40;99.90;;;;;;5076343;28;20295;-61
2024/01/02 05:33:43;;;;;;;6.57;2.53;;;6.40;99.90;;;;;;5076259;28;20685;-61
2024/01/02 05:36:10;;;;;;;8.13;2.70;;;6.40;99.90;;;;;;5075677;28;20717;-61
2024/01/02 05:38:38;;;;;;;3.38;2.20;;;6.30;99.90;;;;;;5075539;28;20207;-61
2024/01/02 05:41:05;;;;;;;7.95;2.95;;;6.40;99.90;;;;;;5075617;28;20223;-61
2024/01/02 05:43:31;;;;;;;7.03;2.58;;;6.40;99.90;;;;;;5075291;28;20670;-61
2024/01/02 05:45:58;;;;;;;4.38;2.28;;;6.30;99.90;;;;;;5075343;28;20209;-62
2024/01/02 05:48:25;;;;;;;3.95;2.33;;;6.30;99.90;;;;;;5075319;28;20207;-62
2024/01/02 05:50:52;;;;;;;4.80;2.33;;;6.30;99.90;;;;;;5075209;28;20197;-61
2024/01/02 05:53:18;;;;;;;7.40;2.78;;;6.30;99.90;;;;;;5075136;28;20196;-62
2024/01/02 05:55:47;;;;;;;4.13;2.15;;;6.30;99.90;;;;;;5075156;28;20197;-62
2024/01/02 05:58:13;;;;;;;6.65;3.92;;;6.30;99.90;;;;;;5074585;28;20207;-62
2024/01/02 06:00:40;;;;;;;6.30;2.83;;;6.30;99.90;;;;;;5075117;28;20208;-63
2024/01/02 06:03:07;;;;;;;2.78;2.13;;;6.30;99.90;;;;;;5093517;28;20204;-61
2024/01/02 06:05:34;;;;;;;4.10;2.25;;;6.30;99.90;;;;;;5095150;28;20671;-61
2024/01/02 06:08:01;;;;;;;5.40;2.20;;;6.30;99.90;;;;;;5095284;28;20196;-61
2024/01/02 06:10:27;;;;;;;3.17;1.98;;;6.30;99.90;;;;;;5096137;28;20200;-61
2024/01/02 06:12:56;;;;;;;3.83;2.25;;;6.30;99.90;;;;;;5094780;28;20227;-61
2024/01/02 06:15:23;;;;;;;3.05;2.40;;;6.30;99.90;;;;;;5094643;28;20684;-62
2024/01/02 06:17:49;;;;;;;5.75;3.00;;;6.30;99.90;;;;;;5095352;28;20228;-62
2024/01/02 06:20:16;;;;;;;2.72;2.17;;;6.30;99.90;;;;;;5095094;28;20217;-61
2024/01/02 06:22:43;;;;;;;3.55;2.13;;;6.30;99.90;;;;;;5094666;28;20226;-62
2024/01/02 06:25:10;;;;;;;3.15;1.73;;;6.30;99.90;;;;;;5094454;28;20296;-62
2024/01/02 06:27:37;;;;;;;3.38;1.13;;;6.30;99.90;;;;;;5094172;28;20208;-61
2024/01/02 06:30:07;;;;;;;2.67;1.30;;;6.30;99.90;;;;;;5094475;28;20247;-62
2024/01/02 06:32:34;;;;;;;2.22;1.35;;;6.30;99.90;;;;;;5094249;28;20244;-61
2024/01/02 06:35:01;;;;;;;1.80;1.25;;;6.30;99.90;;;;;;5093241;28;20200;-61
2024/01/02 06:37:28;;;;;;;1.40;1.10;;;6.30;99.90;;;;;;5094380;28;20204;-62
2024/01/02 06:39:55;;;;;;;2.00;1.10;;;6.30;99.90;;;;;;5094247;28;20204;-61
2024/01/02 06:42:22;;;;;;;4.75;1.10;;;6.30;99.90;;;;;;5108848;28;20292;-61
2024/01/02 06:44:49;;;;;;;2.22;1.27;;;6.30;99.90;;;;;;5094705;28;20204;-61
2024/01/02 06:47:17;;;;;;;3.30;1.30;;;6.30;99.90;;;;;;5094352;28;20204;-62
2024/01/02 06:49:44;;;;;;;1.33;1.10;;;6.30;99.90;;;;;;5093979;28;20674;-62
2024/01/02 06:52:11;;;;;;;0.90;0.80;;;6.30;99.90;;;;;;5094241;28;20220;-62
2024/01/02 06:54:38;;;;;;;2.28;1.10;;;6.30;99.90;;;;;;5094270;28;20201;-61
2024/01/02 06:57:05;;;;;;;2.15;1.05;;;6.30;99.90;;;;;;5093766;28;20688;-61
2024/01/02 06:59:32;;;;;;;0.70;0.70;;;6.30;99.90;;;;;;5093736;28;20716;-62
2024/01/02 07:01:58;;;;;;;2.75;1.25;;;6.30;99.90;;;;;;5093472;28;20612;-63
2024/01/02 07:04:27;;;;;;;1.45;1.02;;;6.30;99.90;;;;;;5093902;28;20200;-62
2024/01/02 07:06:53;;;;;;;3.90;1.20;;;6.30;99.90;;;;;;5093506;28;20216;-62
2024/01/02 07:09:20;;;;;;;1.00;0.90;;;6.30;99.90;;;;;;5093615;28;20208;-62
2024/01/02 07:11:47;;;;;;;3.72;0.95;;;6.20;99.90;;;;;;5093730;28;20660;-63
2024/01/02 07:14:14;;;;;;;2.20;0.80;;;6.20;99.90;;;;;;5093750;28;20337;-61
2024/01/02 07:16:41;;;;;;;1.10;0.80;;;6.20;99.90;;;;;;5095484;28;20250;-61
2024/01/02 07:19:08;;;;;;;1.33;1.10;;;6.20;99.90;;;;;;5097713;28;20685;-61
2024/01/02 07:21:36;;;;;;;1.83;1.10;;;6.10;99.90;;;;;;5097441;28;20243;-61
2024/01/02 07:24:04;;;;;;;2.55;1.20;;;6.10;99.90;;;;;;5096315;28;20557;-61
2024/01/02 07:26:31;;;;;;;1.70;1.25;;;6.10;99.90;;;;;;5095831;28;20204;-61
2024/01/02 07:28:57;;;;;;;2.45;0.93;;;6.00;99.90;;;;;;5096432;28;20204;-59
2024/01/02 07:31:26;;;;;;;2.78;0.90;;;6.00;99.90;;;;;;5093627;28;20243;-61
2024/01/02 07:33:52;;;;;;;1.20;0.95;;;6.00;99.90;;;;;;5093834;28;20239;-62
2024/01/02 07:36:19;;;;;;;1.17;0.82;;;6.00;99.90;;;;;;5093701;28;20215;-61
2024/01/02 07:38:47;;;;;;;0.93;0.70;;;5.90;99.90;;;;;;5093366;28;20196;-61
2024/01/02 07:41:14;;;;;;;2.00;1.20;;;5.90;99.90;;;;;;5094094;28;20617;-61
2024/01/02 07:43:41;;;;;;;3.13;1.80;;;5.90;99.90;;;;;;5093611;28;20572;-61
2024/01/02 07:46:07;;;;;;;3.72;0.85;;;5.90;99.90;;;;;;5094600;28;20231;-61
2024/01/02 07:48:34;;;;;;;0.77;0.75;;;5.90;99.90;;;;;;5094426;28;20200;-62
2024/01/02 07:51:01;;;;;;;0.90;0.80;;;5.80;99.90;;;;;;5096724;28;20228;-61
2024/01/02 07:53:28;;;;;;;2.60;0.90;;;5.80;99.90;;;;;;5095060;28;20226;-61
2024/01/02 07:55:56;;;;;;;1.40;0.60;;;5.80;99.90;;;;;;5093170;28;20295;-61
2024/01/02 07:58:22;;;;;;;1.20;0.90;;;5.80;99.90;;;;;;5092957;28;20199;-61
2024/01/02 08:00:49;;;;;;;1.05;0.90;;;5.80;99.90;;;;;;5093542;28;20196;-61
2024/01/02 08:03:16;;;;;;;1.92;0.82;;;5.70;99.90;;;;;;5093229;28;20196;-61
2024/01/02 08:05:43;;;;;;;1.58;0.80;;;5.70;99.90;;;;;;5092703;28;20615;-61
2024/01/02 08:08:10;;;;;;;1.95;0.70;;;5.70;99.90;;;;;;5093185;28;20205;-62
2024/01/02 08:10:37;;;;;;;2.55;0.90;;;5.70;99.90;;;;;;5092768;28;20201;-62
2024/01/02 08:13:05;;;;;;;0.80;0.68;;;5.60;99.90;;;;;;5092767;28;20250;-61
2024/01/02 08:15:32;;;;;;;1.90;1.23;;;5.60;99.90;;;;;;5093210;28;20208;-62
2024/01/02 08:17:59;;;;;;;2.13;0.90;;;5.60;99.90;;;;;;5092723;28;20200;-62
2024/01/02 08:20:25;;;;;;;1.17;0.60;;;5.60;99.90;;;;;;5093855;28;20551;-61
2024/01/02 08:22:53;;;;;;;1.00;0.68;;;5.50;99.90;;;;;;5094004;28;20589;-62
2024/01/02 08:25:23;;;;;;;1.70;1.20;;;5.50;99.90;;;;;;5093548;28;20228;-61
2024/01/02 08:27:50;;;;;;;3.85;1.40;;;5.50;99.90;;;;;;5093556;28;20261;-61
2024/01/02 08:30:19;;;;;;;1.60;0.98;;;5.50;99.90;;;;;;5093396;28;20208;-62
2024/01/02 08:32:46;;;;;;;1.23;0.95;;;5.40;99.90;;;;;;5093467;28;20220;-61
2024/01/02 08:35:13;;;;;;;3.20;0.75;;;5.40;99.90;;;;;;5093476;28;20204;-61
2024/01/02 08:37:41;;;;;;;1.35;0.93;;;5.40;99.90;;;;;;5106170;28;20268;-61
2024/01/02 08:40:09;;;;;;;1.30;0.70;;;5.40;99.90;;;;;;5098638;28;20196;-61
2024/01/02 08:42:36;;;;;;;1.20;1.10;;;5.40;99.90;;;;;;5093199;28;20212;-61
2024/01/02 08:45:04;;;;;;;1.63;1.52;;;5.40;99.90;;;;;;5093504;28;20228;-60
2024/01/02 08:47:34;;;;;;;1.90;1.70;;;5.40;99.90;;;;;;5092276;28;20205;-60
2024/01/02 08:50:00;;;;;;;0.90;0.80;;;5.40;99.90;;;;;;5092698;28;20254;-62
2024/01/02 08:52:27;;;;;;;1.33;1.02;;;5.40;99.90;;;;;;5091847;28;20576;-61
2024/01/02 08:54:54;;;;;;;0.95;0.80;;;5.40;99.90;;;;;;5092632;28;20575;-62
2024/01/02 08:57:21;;;;;;;1.00;0.90;;;5.40;99.90;;;;;;5092500;28;20200;-61
2024/01/02 08:59:47;;;;;;;1.80;1.00;;;5.40;99.90;;;;;;5096246;28;20287;-61
2024/01/02 09:02:14;;;;;;;1.98;1.00;;;5.40;99.90;;;;;;5095751;28;20224;-61
2024/01/02 09:04:43;;;;;;;1.15;1.02;;;5.40;99.90;;;;;;5096099;28;20200;-60
2024/01/02 09:07:10;;;;;;;0.80;0.70;;;5.40;99.90;;;;;;5095964;28;20215;-60
2024/01/02 09:09:37;;;;;;;0.80;0.80;;;5.30;99.90;;;;;;5096264;28;20200;-61
2024/01/02 09:12:04;;;;;;;0.80;0.80;;;5.30;99.90;;;;;;5096196;28;20224;-61
2024/01/02 09:14:31;;;;;;;2.47;0.98;;;5.30;99.90;;;;;;5096276;28;20227;-62
2024/01/02 09:16:58;;;;;;;2.85;0.88;;;5.30;99.90;;;;;;5096151;28;20206;-62
2024/01/02 09:19:24;;;;;;;1.73;1.50;;;5.30;99.90;;;;;;5096222;28;20200;-60
2024/01/02 09:21:53;;;;;;;4.38;2.00;;;5.30;99.90;;;;;;5096054;28;20319;-62
2024/01/02 09:24:21;;;;;;;3.55;1.25;;;5.30;99.90;;;;;;5096555;28;20230;-62
2024/01/02 09:26:51;;;;;;;1.90;1.00;;;5.40;99.90;;;;;;5096451;28;20214;-60
2024/01/02 09:29:21;;;;;;;2.17;0.85;;;5.30;99.90;;;;;;5095966;28;20201;-61
2024/01/02 09:31:48;;;;;;;0.93;0.80;;;5.40;99.90;;;;;;5095692;28;20288;-62
2024/01/02 09:34:15;;;;;;;3.30;1.25;;;5.30;99.90;;;;;;5095730;28;20593;-62
2024/01/02 09:36:43;;;;;;;1.67;1.00;;;5.40;99.90;;;;;;5095759;28;20207;-61
2024/01/02 09:39:13;;;;;;;1.23;1.13;;;5.40;99.90;;;;;;5095421;28;20613;-62
2024/01/02 09:42:01;;;;;;;1.02;1.00;;;5.40;99.90;;;;;;5095881;28;20323;-61
2024/01/02 09:44:44;;;;;;;2.08;1.38;;;5.50;99.90;;;;;;5095770;28;20196;-62
2024/01/02 09:47:25;;;;;;;0.82;0.80;;;5.50;99.90;;;;;;5095760;28;20184;-61
2024/01/02 09:49:58;;;;;;;2.20;1.40;;;5.50;99.90;;;;;;5096101;28;20490;-59
2024/01/02 09:52:50;;;;;;;1.33;1.00;;;5.60;99.90;;;;;;5096343;28;20224;-61
2024/01/02 09:55:26;;;;;;;1.30;0.90;;;5.60;99.90;;;;;;5095856;28;20189;-61
2024/01/02 09:58:06;;;;;;;1.40;1.30;;;5.70;99.90;;;;;;5095677;28;20202;-61
2024/01/02 10:00:42;;;;;;;2.85;1.25;;;5.70;99.90;;;;;;5095782;28;20184;-62
2024/01/02 10:03:24;;;;;;;0.90;0.90;;;5.80;99.90;;;;;;5095290;28;20591;-62
2024/01/02 10:06:06;;;;;;;0.85;0.85;;;5.80;99.90;;;;;;5095425;28;20192;-60
2024/01/02 10:08:58;;;;;;;0.75;0.75;;;5.80;99.90;;;;;;5095650;28;20241;-61
2024/01/02 10:11:38;;;;;;;1.20;0.70;;;5.90;99.90;;;;;;5094885;28;20714;-61
2024/01/02 10:14:11;;;;;;;1.35;0.80;;;5.90;99.90;;;;;;5095082;28;20216;-61
2024/01/02 10:16:40;;;;;;;0.90;0.68;;;6.00;99.90;;;;;;5095495;28;20184;-61
2024/01/02 10:19:23;;;;;;;0.93;0.90;;;6.00;99.90;;;;;;5095438;28;20228;-60
2024/01/02 10:22:04;;;;;;;1.70;1.17;;;6.00;99.90;;;;;;5094941;28;20220;-61
2024/01/02 10:24:39;;;;;;;0.80;0.80;;;6.10;99.90;;;;;;5094986;28;20184;-60
2024/01/02 10:27:12;;;;;;;1.85;0.75;;;6.10;99.90;;;;;;5094743;28;20194;-61
2024/01/02 10:29:52;;;;;;;1.40;1.08;;;6.20;99.90;;;;;;5094931;28;20180;-62
2024/01/02 10:32:26;;;;;;;1.50;0.80;;;6.20;99.90;;;;;;5094646;28;20725;-61
2024/01/02 10:35:04;;;;;;;2.35;1.17;;;6.20;99.90;;;;;;5094878;28;20556;-61
2024/01/02 10:37:36;;;;;;;1.60;1.25;;;6.30;99.90;;;;;;5100009;28;20188;-62
2024/01/02 10:40:08;;;;;;;0.90;0.90;;;6.40;99.90;;;;;;5110279;28;20276;-63
2024/01/02 10:42:48;;;;;;;1.10;0.90;;;6.40;99.90;;;;;;5094977;28;20231;-62
2024/01/02 10:45:21;;;;;;;1.10;1.00;;;6.50;99.90;;;;;;5094842;28;20184;-62
2024/01/02 10:48:05;;;;;;;1.80;1.60;;;6.60;99.90;;;;;;5094571;28;20210;-61
2024/01/02 10:50:38;;;;;;;2.05;1.85;;;6.60;99.90;;;;;;5093951;28;20180;-60
2024/01/02 10:53:19;;;;;;;1.25;1.15;;;6.70;99.90;;;;;;5094316;28;20219;-62
2024/01/02 10:55:49;;;;;;;1.30;1.15;;;6.80;99.90;;;;;;5094599;28;20189;-60
2024/01/02 10:58:23;;;;;;;1.58;1.42;;;6.80;99.90;;;;;;5094142;28;20200;-62
2024/01/02 11:00:59;;;;;;;1.50;1.40;;;6.90;99.90;;;;;;5093978;28;20654;-62
2024/01/02 11:03:29;;;;;;;1.17;1.08;;;6.90;99.90;;;;;;5094250;28;20194;-62
2024/01/02 11:06:05;;;;;;;1.50;1.40;;;6.90;99.90;;;;;;5094718;28;20199;-63
2024/01/02 11:08:36;;;;;;;2.13;1.92;;;7.00;99.90;;;;;;5094687;28;20246;-61
2024/01/02 11:11:05;;;;;;;1.95;1.58;;;7.00;99.90;;;;;;5094571;28;20593;-61
2024/01/02 11:13:38;;;;;;;1.83;1.10;;;7.00;99.90;;;;;;5094253;28;20636;-61
2024/01/02 11:16:10;;;;;;;2.17;1.92;;;7.10;99.90;;;;;;5094373;28;20185;-58
2024/01/02 11:18:41;;;;;;;1.10;1.00;;;7.10;99.90;;;;;;5095000;28;20622;-60
2024/01/02 11:21:14;;;;;;;1.58;1.27;;;7.10;99.90;;;;;;5093574;28;20231;-62
2024/01/02 11:23:44;;;;;;;2.70;1.70;;;7.20;99.90;;;;;;5094116;28;20188;-63
2024/01/02 11:26:15;;;;;;;1.73;1.40;;;7.20;99.90;;;;;;5094146;28;20200;-61
2024/01/02 11:28:47;;;;;;;1.70;1.60;;;7.20;99.90;;;;;;5094401;28;20184;-61
2024/01/02 11:31:14;;;;;;;2.28;1.05;;;7.20;99.90;;;;;;5093494;28;20269;-60
2024/01/02 11:34:00;;;;;;;1.60;1.35;;;7.30;99.90;;;;;;5093623;28;20222;-62
2024/01/02 11:36:40;;;;;;;1.30;1.20;;;7.30;99.90;;;;;;5093787;28;20191;-63
2024/01/02 11:39:12;;;;;;;1.90;1.33;;;7.40;99.90;;;;;;5093549;28;20180;-60
2024/01/02 11:41:52;;;;;;;1.58;1.30;;;7.40;99.90;;;;;;5093454;28;20220;-62
2024/01/02 11:44:34;;;;;;;2.25;1.50;;;7.50;99.90;;;;;;5093571;28;20184;-62
2024/01/02 11:47:05;;;;;;;2.50;1.80;;;7.60;99.90;;;;;;5093691;28;20189;-62
2024/01/02 11:49:38;;;;;;;1.35;1.25;;;7.60;99.90;;;;;;5093641;28;20204;-62
2024/01/02 11:52:12;;;;;;;1.65;1.55;;;7.70;99.90;;;;;;5093161;28;20310;-62
2024/01/02 11:54:44;;;;;;;1.55;1.42;;;7.70;99.90;;;;;;5093675;28;20280;-62
2024/01/02 11:57:21;;;;;;;2.80;2.10;;;7.70;99.90;;;;;;5093562;28;20224;-61
2024/01/02 12:00:00;;;;;;;2.17;1.23;;;7.80;99.90;;;;;;5093458;28;20271;-61
2024/01/02 12:02:42;;;;;;;3.13;1.45;;;7.80;99.90;;;;;;5093209;28;20233;-63
2024/01/02 12:05:16;;;;;;;1.80;1.70;;;7.80;99.90;;;;;;5093576;28;20208;-62
2024/01/02 12:07:45;;;;;;;1.75;1.50;;;7.90;99.90;;;;;;5093557;28;20218;-63
2024/01/02 12:10:14;;;;;;;2.28;1.55;;;8.00;99.90;;;;;;5093293;28;20303;-61
2024/01/02 12:12:49;;;;;;;1.58;1.48;;;8.00;99.90;;;;;;5093703;28;20227;-63
2024/01/02 12:15:25;;;;;;;2.08;1.65;;;8.10;99.90;;;;;;5094238;28;20203;-61
2024/01/02 12:17:59;;;;;;;2.40;1.67;;;8.20;99.90;;;;;;5094169;28;20564;-61
2024/01/02 12:20:28;;;;;;;1.80;1.70;;;8.20;99.90;;;;;;5094645;28;20189;-62
2024/01/02 12:22:56;;;;;;;4.82;3.38;;;8.30;99.90;;;;;;5094283;28;20220;-62
2024/01/02 12:25:22;;;;;;;3.08;2.10;;;8.40;99.90;;;;;;5093888;28;20196;-62
2024/01/02 12:27:53;;;;;;;2.70;2.30;;;8.50;99.90;;;;;;5094000;28;20200;-63
2024/01/02 12:30:25;;;;;;;2.72;2.53;;;8.60;99.90;;;;;;5094984;28;20207;-63
2024/01/02 12:33:04;;;;;;;2.90;2.50;;;8.70;99.90;;;;;;5095015;28;20228;-59
2024/01/02 12:35:35;;;;;;;4.72;2.63;;;8.80;99.90;;;;;;5097530;28;20184;-62
2024/01/02 12:38:14;;;;;;;6.40;3.30;;;8.90;99.90;;;;;;5097769;28;20189;-60
2024/01/02 12:40:44;;;;;;;3.70;2.93;;;8.90;99.90;;;;;;5096996;28;20198;-61
2024/01/02 12:43:13;;;;;;;4.80;3.10;;;9.00;99.90;;;;;;5096702;28;20943;-64
2024/01/02 12:45:46;;;;;;;2.85;2.60;;;9.00;99.90;;;;;;5096981;28;20446;-61
2024/01/02 12:48:18;;;;;;;3.70;2.33;;;9.10;99.90;;;;;;5107657;28;20238;-60
2024/01/02 12:50:50;;;;;;;1.97;1.77;;;9.10;99.90;;;;;;5100573;28;20431;-62
2024/01/02 12:53:17;;;;;;;3.20;2.90;;;9.10;99.90;;;;;;5097275;28;20548;-63
2024/01/02 12:55:54;;;;;;;2.40;2.20;;;9.10;99.90;;;;;;5096801;28;20674;-62
2024/01/02 12:58:21;;;;;;;2.75;2.55;;;9.20;99.90;;;;;;5097135;28;20287;-63
2024/01/02 13:00:50;;;;;;;2.67;2.47;;;9.20;99.90;;;;;;5097023;28;20295;-62
2024/01/02 13:03:18;;;;;;;3.67;2.73;;;9.20;99.90;;;;;;5097880;28;20465;-60
2024/01/02 13:05:45;;;;;;;5.63;3.80;;;9.20;99.90;;;;;;5097492;28;20430;-62
2024/01/02 13:08:17;;;;;;;3.70;3.17;;;9.30;99.90;;;;;;5097212;28;20489;-63